sensor_id;sensor_type;location;lat;lon;timestamp;temperature;humidity
6008;DHT22;3032;49.484;11.112;2023-03-17T00:00:48;4.50;98.80
6008;DHT22;3032;49.484;11.112;2023-03-17T00:03:38;4.40;98.50
6008;DHT22;3032;49.484;11.112;2023-03-17T00:06:25;4.50;97.70
6008;DHT22;3032;49.484;11.112;2023-03-17T00:08:52;4.70;97.50
6008;DHT22;3032;49.484;11.112;2023-03-17T00:11:19;4.80;97.00
6008;DHT22;3032;49.484;11.112;2023-03-17T00:13:45;4.70;96.80
6008;DHT22;3032;49.484;11.112;2023-03-17T00:16:19;4.70;96.90
6008;DHT22;3032;49.484;11.112;2023-03-17T00:18:46;4.80;96.60
6008;DHT22;3032;49.484;11.112;2023-03-17T00:21:14;4.80;96.70
6008;DHT22;3032;49.484;11.112;2023-03-17T00:23:42;4.80;96.50
6008;DHT22;3032;49.484;11.112;2023-03-17T00:26:11;4.70;96.70
6008;DHT22;3032;49.484;11.112;2023-03-17T00:28:36;4.90;96.30
6008;DHT22;3032;49.484;11.112;2023-03-17T00:31:14;5.00;96.10
6008;DHT22;3032;49.484;11.112;2023-03-17T00:33:42;5.20;95.90
6008;DHT22;3032;49.484;11.112;2023-03-17T00:36:14;5.30;95.40
6008;DHT22;3032;49.484;11.112;2023-03-17T00:38:40;5.30;95.40
6008;DHT22;3032;49.484;11.112;2023-03-17T00:41:07;5.20;95.50
6008;DHT22;3032;49.484;11.112;2023-03-17T00:43:34;5.10;95.60
6008;DHT22;3032;49.484;11.112;2023-03-17T00:46:00;5.00;95.80
6008;DHT22;3032;49.484;11.112;2023-03-17T00:48:26;5.00;95.90
6008;DHT22;3032;49.484;11.112;2023-03-17T00:50:52;5.20;95.60
6008;DHT22;3032;49.484;11.112;2023-03-17T00:53:19;5.20;95.50
6008;DHT22;3032;49.484;11.112;2023-03-17T00:55:48;5.30;95.30
6008;DHT22;3032;49.484;11.112;2023-03-17T00:58:26;5.20;95.00
6008;DHT22;3032;49.484;11.112;2023-03-17T01:00:53;5.00;95.70
6008;DHT22;3032;49.484;11.112;2023-03-17T01:03:20;4.90;95.70
6008;DHT22;3032;49.484;11.112;2023-03-17T01:05:47;5.00;95.50
6008;DHT22;3032;49.484;11.112;2023-03-17T01:08:13;4.80;95.80
6008;DHT22;3032;49.484;11.112;2023-03-17T01:10:39;4.80;96.10
6008;DHT22;3032;49.484;11.112;2023-03-17T01:13:05;4.60;96.10
6008;DHT22;3032;49.484;11.112;2023-03-17T01:15:32;4.60;96.10
6008;DHT22;3032;49.484;11.112;2023-03-17T01:17:59;4.60;96.20
6008;DHT22;3032;49.484;11.112;2023-03-17T01:20:31;4.50;96.50
6008;DHT22;3032;49.484;11.112;2023-03-17T01:22:57;4.50;96.40
6008;DHT22;3032;49.484;11.112;2023-03-17T01:25:23;4.30;96.50
6008;DHT22;3032;49.484;11.112;2023-03-17T01:27:50;4.40;96.70
6008;DHT22;3032;49.484;11.112;2023-03-17T01:32:44;4.50;96.60
6008;DHT22;3032;49.484;11.112;2023-03-17T01:35:10;4.70;96.30
6008;DHT22;3032;49.484;11.112;2023-03-17T01:37:37;4.60;96.20
6008;DHT22;3032;49.484;11.112;2023-03-17T01:40:07;4.70;96.20
6008;DHT22;3032;49.484;11.112;2023-03-17T01:42:37;4.90;95.80
6008;DHT22;3032;49.484;11.112;2023-03-17T01:48:08;4.80;95.70
6008;DHT22;3032;49.484;11.112;2023-03-17T01:50:33;4.60;96.10
6008;DHT22;3032;49.484;11.112;2023-03-17T01:52:59;4.70;95.70
6008;DHT22;3032;49.484;11.112;2023-03-17T01:55:25;4.80;95.70
6008;DHT22;3032;49.484;11.112;2023-03-17T01:57:51;4.90;95.30
6008;DHT22;3032;49.484;11.112;2023-03-17T02:00:22;4.70;95.60
6008;DHT22;3032;49.484;11.112;2023-03-17T02:02:54;4.50;96.10
6008;DHT22;3032;49.484;11.112;2023-03-17T02:05:23;4.60;95.90
6008;DHT22;3032;49.484;11.112;2023-03-17T02:07:51;4.90;95.40
6008;DHT22;3032;49.484;11.112;2023-03-17T02:10:18;5.20;95.20
6008;DHT22;3032;49.484;11.112;2023-03-17T02:12:46;4.80;95.10
6008;DHT22;3032;49.484;11.112;2023-03-17T02:15:13;4.80;95.40
6008;DHT22;3032;49.484;11.112;2023-03-17T02:17:38;4.70;95.40
6008;DHT22;3032;49.484;11.112;2023-03-17T02:22:50;4.50;95.90
6008;DHT22;3032;49.484;11.112;2023-03-17T02:25:17;4.40;95.90
6008;DHT22;3032;49.484;11.112;2023-03-17T02:27:47;4.30;96.10
6008;DHT22;3032;49.484;11.112;2023-03-17T02:30:14;4.20;96.50
6008;DHT22;3032;49.484;11.112;2023-03-17T02:32:41;4.30;96.50
6008;DHT22;3032;49.484;11.112;2023-03-17T02:35:08;4.10;96.60
6008;DHT22;3032;49.484;11.112;2023-03-17T02:37:34;4.10;96.80
6008;DHT22;3032;49.484;11.112;2023-03-17T02:40:00;4.10;96.90
6008;DHT22;3032;49.484;11.112;2023-03-17T02:42:26;4.10;96.80
6008;DHT22;3032;49.484;11.112;2023-03-17T02:44:52;4.20;96.50
6008;DHT22;3032;49.484;11.112;2023-03-17T02:47:19;4.10;97.10
6008;DHT22;3032;49.484;11.112;2023-03-17T02:49:44;4.10;97.20
6008;DHT22;3032;49.484;11.112;2023-03-17T02:52:10;4.20;96.80
6008;DHT22;3032;49.484;11.112;2023-03-17T02:54:37;4.20;96.80
6008;DHT22;3032;49.484;11.112;2023-03-17T02:57:02;4.30;96.80
6008;DHT22;3032;49.484;11.112;2023-03-17T02:59:28;4.40;96.50
6008;DHT22;3032;49.484;11.112;2023-03-17T03:01:54;4.70;96.10
6008;DHT22;3032;49.484;11.112;2023-03-17T03:04:21;5.10;95.20
6008;DHT22;3032;49.484;11.112;2023-03-17T03:06:47;5.20;95.60
6008;DHT22;3032;49.484;11.112;2023-03-17T03:09:13;5.30;94.50
6008;DHT22;3032;49.484;11.112;2023-03-17T03:11:39;5.30;94.10
6008;DHT22;3032;49.484;11.112;2023-03-17T03:14:05;5.40;94.20
6008;DHT22;3032;49.484;11.112;2023-03-17T03:16:31;5.50;94.00
6008;DHT22;3032;49.484;11.112;2023-03-17T03:18:56;5.50;93.90
6008;DHT22;3032;49.484;11.112;2023-03-17T03:21:22;5.50;94.00
6008;DHT22;3032;49.484;11.112;2023-03-17T03:23:48;5.30;94.10
6008;DHT22;3032;49.484;11.112;2023-03-17T03:26:14;5.50;93.80
6008;DHT22;3032;49.484;11.112;2023-03-17T03:28:39;5.60;93.60
6008;DHT22;3032;49.484;11.112;2023-03-17T03:31:05;5.60;93.50
6008;DHT22;3032;49.484;11.112;2023-03-17T03:33:31;5.50;93.60
6008;DHT22;3032;49.484;11.112;2023-03-17T03:35:58;5.30;93.90
6008;DHT22;3032;49.484;11.112;2023-03-17T03:38:24;5.30;93.90
6008;DHT22;3032;49.484;11.112;2023-03-17T03:40:50;5.40;93.90
6008;DHT22;3032;49.484;11.112;2023-03-17T03:43:16;5.40;93.60
6008;DHT22;3032;49.484;11.112;2023-03-17T03:45:41;5.30;93.90
6008;DHT22;3032;49.484;11.112;2023-03-17T03:48:07;5.10;94.20
6008;DHT22;3032;49.484;11.112;2023-03-17T03:50:33;5.10;94.50
6008;DHT22;3032;49.484;11.112;2023-03-17T03:52:59;4.80;94.80
6008;DHT22;3032;49.484;11.112;2023-03-17T03:55:24;4.70;95.40
6008;DHT22;3032;49.484;11.112;2023-03-17T03:57:50;4.80;95.50
6008;DHT22;3032;49.484;11.112;2023-03-17T04:00:16;4.80;95.60
6008;DHT22;3032;49.484;11.112;2023-03-17T04:02:42;4.50;96.00
6008;DHT22;3032;49.484;11.112;2023-03-17T04:05:13;4.40;96.50
6008;DHT22;3032;49.484;11.112;2023-03-17T04:07:39;4.40;96.60
6008;DHT22;3032;49.484;11.112;2023-03-17T04:10:06;4.50;96.20
6008;DHT22;3032;49.484;11.112;2023-03-17T04:12:33;4.20;96.40
6008;DHT22;3032;49.484;11.112;2023-03-17T04:14:59;4.00;97.80
6008;DHT22;3032;49.484;11.112;2023-03-17T04:17:25;4.00;97.90
6008;DHT22;3032;49.484;11.112;2023-03-17T04:19:50;4.00;98.30
6008;DHT22;3032;49.484;11.112;2023-03-17T04:22:16;3.70;98.90
6008;DHT22;3032;49.484;11.112;2023-03-17T04:24:42;3.60;99.40
6008;DHT22;3032;49.484;11.112;2023-03-17T04:27:08;3.60;99.60
6008;DHT22;3032;49.484;11.112;2023-03-17T04:29:34;3.40;99.90
6008;DHT22;3032;49.484;11.112;2023-03-17T04:32:02;3.50;99.90
6008;DHT22;3032;49.484;11.112;2023-03-17T04:34:28;3.30;99.90
6008;DHT22;3032;49.484;11.112;2023-03-17T04:36:54;3.20;99.90
6008;DHT22;3032;49.484;11.112;2023-03-17T04:39:20;3.30;99.90
6008;DHT22;3032;49.484;11.112;2023-03-17T04:41:46;3.40;99.90
6008;DHT22;3032;49.484;11.112;2023-03-17T04:44:12;3.50;99.90
6008;DHT22;3032;49.484;11.112;2023-03-17T04:46:37;3.60;99.70
6008;DHT22;3032;49.484;11.112;2023-03-17T04:49:03;3.50;99.50
6008;DHT22;3032;49.484;11.112;2023-03-17T04:51:29;3.50;99.90
6008;DHT22;3032;49.484;11.112;2023-03-17T04:53:55;3.60;99.80
6008;DHT22;3032;49.484;11.112;2023-03-17T04:56:21;3.70;99.30
6008;DHT22;3032;49.484;11.112;2023-03-17T04:58:46;3.80;99.30
6008;DHT22;3032;49.484;11.112;2023-03-17T05:01:12;3.70;99.20
6008;DHT22;3032;49.484;11.112;2023-03-17T05:03:38;3.70;99.20
6008;DHT22;3032;49.484;11.112;2023-03-17T05:06:04;3.80;99.20
6008;DHT22;3032;49.484;11.112;2023-03-17T05:08:30;3.70;99.10
6008;DHT22;3032;49.484;11.112;2023-03-17T05:10:56;3.80;98.70
6008;DHT22;3032;49.484;11.112;2023-03-17T05:13:23;3.80;98.80
6008;DHT22;3032;49.484;11.112;2023-03-17T05:15:50;4.00;98.50
6008;DHT22;3032;49.484;11.112;2023-03-17T05:18:16;4.20;97.90
6008;DHT22;3032;49.484;11.112;2023-03-17T05:20:43;4.10;98.00
6008;DHT22;3032;49.484;11.112;2023-03-17T05:23:08;4.00;98.20
6008;DHT22;3032;49.484;11.112;2023-03-17T05:25:34;4.00;98.50
6008;DHT22;3032;49.484;11.112;2023-03-17T05:27:59;3.90;98.30
6008;DHT22;3032;49.484;11.112;2023-03-17T05:30:26;3.70;98.70
6008;DHT22;3032;49.484;11.112;2023-03-17T05:32:52;3.90;98.90
6008;DHT22;3032;49.484;11.112;2023-03-17T05:35:17;3.50;99.20
6008;DHT22;3032;49.484;11.112;2023-03-17T05:37:43;3.30;99.60
6008;DHT22;3032;49.484;11.112;2023-03-17T05:40:11;3.30;99.90
6008;DHT22;3032;49.484;11.112;2023-03-17T05:42:38;3.50;99.90
6008;DHT22;3032;49.484;11.112;2023-03-17T05:45:04;3.80;99.10
6008;DHT22;3032;49.484;11.112;2023-03-17T05:47:30;4.00;98.70
6008;DHT22;3032;49.484;11.112;2023-03-17T05:49:58;4.20;97.90
6008;DHT22;3032;49.484;11.112;2023-03-17T05:52:23;4.20;97.80
6008;DHT22;3032;49.484;11.112;2023-03-17T05:54:49;4.30;97.70
6008;DHT22;3032;49.484;11.112;2023-03-17T05:57:16;4.80;97.40
6008;DHT22;3032;49.484;11.112;2023-03-17T05:59:42;5.00;96.00
6008;DHT22;3032;49.484;11.112;2023-03-17T06:02:08;4.60;96.60
6008;DHT22;3032;49.484;11.112;2023-03-17T06:04:35;4.60;97.10
6008;DHT22;3032;49.484;11.112;2023-03-17T06:07:01;4.80;96.80
6008;DHT22;3032;49.484;11.112;2023-03-17T06:09:27;5.00;96.20
6008;DHT22;3032;49.484;11.112;2023-03-17T06:11:52;4.90;96.20
6008;DHT22;3032;49.484;11.112;2023-03-17T06:14:18;4.60;96.70
6008;DHT22;3032;49.484;11.112;2023-03-17T06:16:44;4.50;97.20
6008;DHT22;3032;49.484;11.112;2023-03-17T06:19:10;5.00;97.00
6008;DHT22;3032;49.484;11.112;2023-03-17T06:21:36;5.90;95.70
6008;DHT22;3032;49.484;11.112;2023-03-17T06:24:02;6.80;94.30
6008;DHT22;3032;49.484;11.112;2023-03-17T06:26:28;7.60;92.80
6008;DHT22;3032;49.484;11.112;2023-03-17T06:28:53;8.40;91.40
6008;DHT22;3032;49.484;11.112;2023-03-17T06:31:19;8.70;89.60
6008;DHT22;3032;49.484;11.112;2023-03-17T06:33:45;8.20;89.80
6008;DHT22;3032;49.484;11.112;2023-03-17T06:36:10;9.10;89.20
6008;DHT22;3032;49.484;11.112;2023-03-17T06:38:36;10.50;84.70
6008;DHT22;3032;49.484;11.112;2023-03-17T06:41:01;11.60;80.20
6008;DHT22;3032;49.484;11.112;2023-03-17T06:43:27;12.40;76.60
6008;DHT22;3032;49.484;11.112;2023-03-17T06:45:53;13.00;72.70
6008;DHT22;3032;49.484;11.112;2023-03-17T06:48:18;14.00;68.30
6008;DHT22;3032;49.484;11.112;2023-03-17T06:50:44;13.90;65.00
6008;DHT22;3032;49.484;11.112;2023-03-17T06:53:12;13.50;63.80
6008;DHT22;3032;49.484;11.112;2023-03-17T06:55:37;13.30;63.90
6008;DHT22;3032;49.484;11.112;2023-03-17T06:58:03;13.00;63.70
6008;DHT22;3032;49.484;11.112;2023-03-17T07:00:29;13.60;63.40
6008;DHT22;3032;49.484;11.112;2023-03-17T07:02:55;14.40;62.50
6008;DHT22;3032;49.484;11.112;2023-03-17T07:05:22;13.80;60.20
6008;DHT22;3032;49.484;11.112;2023-03-17T07:07:48;14.00;61.20
6008;DHT22;3032;49.484;11.112;2023-03-17T07:10:14;15.10;59.80
6008;DHT22;3032;49.484;11.112;2023-03-17T07:12:40;16.10;58.40
6008;DHT22;3032;49.484;11.112;2023-03-17T07:15:06;16.80;57.40
6008;DHT22;3032;49.484;11.112;2023-03-17T07:17:31;18.40;55.70
6008;DHT22;3032;49.484;11.112;2023-03-17T07:19:57;19.00;51.40
6008;DHT22;3032;49.484;11.112;2023-03-17T07:22:23;18.90;50.30
6008;DHT22;3032;49.484;11.112;2023-03-17T07:24:49;19.00;50.80
6008;DHT22;3032;49.484;11.112;2023-03-17T07:27:17;18.80;49.90
6008;DHT22;3032;49.484;11.112;2023-03-17T07:29:43;19.10;49.40
6008;DHT22;3032;49.484;11.112;2023-03-17T07:32:09;19.90;48.80
6008;DHT22;3032;49.484;11.112;2023-03-17T07:34:35;20.40;49.30
6008;DHT22;3032;49.484;11.112;2023-03-17T07:37:01;20.20;47.00
6008;DHT22;3032;49.484;11.112;2023-03-17T07:39:27;20.60;47.30
6008;DHT22;3032;49.484;11.112;2023-03-17T07:41:52;20.70;45.60
6008;DHT22;3032;49.484;11.112;2023-03-17T07:44:20;19.30;45.00
6008;DHT22;3032;49.484;11.112;2023-03-17T07:46:47;19.00;46.10
6008;DHT22;3032;49.484;11.112;2023-03-17T07:49:13;19.40;46.50
6008;DHT22;3032;49.484;11.112;2023-03-17T07:51:38;19.20;46.00
6008;DHT22;3032;49.484;11.112;2023-03-17T07:54:07;19.70;45.80
6008;DHT22;3032;49.484;11.112;2023-03-17T07:56:34;19.20;46.00
6008;DHT22;3032;49.484;11.112;2023-03-17T07:59:00;18.90;46.10
6008;DHT22;3032;49.484;11.112;2023-03-17T08:01:26;18.20;47.20
6008;DHT22;3032;49.484;11.112;2023-03-17T08:03:52;18.80;47.70
6008;DHT22;3032;49.484;11.112;2023-03-17T08:06:18;19.40;47.10
6008;DHT22;3032;49.484;11.112;2023-03-17T08:08:44;19.70;46.30
6008;DHT22;3032;49.484;11.112;2023-03-17T08:11:10;19.50;46.40
6008;DHT22;3032;49.484;11.112;2023-03-17T08:13:36;19.00;46.30
6008;DHT22;3032;49.484;11.112;2023-03-17T08:16:02;18.50;46.90
6008;DHT22;3032;49.484;11.112;2023-03-17T08:18:28;18.40;46.00
6008;DHT22;3032;49.484;11.112;2023-03-17T08:20:53;18.10;47.60
6008;DHT22;3032;49.484;11.112;2023-03-17T08:23:19;18.50;46.90
6008;DHT22;3032;49.484;11.112;2023-03-17T08:25:45;19.20;46.50
6008;DHT22;3032;49.484;11.112;2023-03-17T08:28:12;19.70;46.80
6008;DHT22;3032;49.484;11.112;2023-03-17T08:30:38;19.10;45.80
6008;DHT22;3032;49.484;11.112;2023-03-17T08:33:04;18.70;47.20
6008;DHT22;3032;49.484;11.112;2023-03-17T08:35:31;18.50;47.80
6008;DHT22;3032;49.484;11.112;2023-03-17T08:37:56;19.30;46.90
6008;DHT22;3032;49.484;11.112;2023-03-17T08:40:22;20.40;45.70
6008;DHT22;3032;49.484;11.112;2023-03-17T08:42:48;20.70;45.50
6008;DHT22;3032;49.484;11.112;2023-03-17T08:45:15;20.30;45.90
6008;DHT22;3032;49.484;11.112;2023-03-17T08:47:43;19.90;45.40
6008;DHT22;3032;49.484;11.112;2023-03-17T08:50:13;20.00;44.80
6008;DHT22;3032;49.484;11.112;2023-03-17T08:52:39;18.90;45.30
6008;DHT22;3032;49.484;11.112;2023-03-17T08:55:06;19.30;46.00
6008;DHT22;3032;49.484;11.112;2023-03-17T08:57:33;19.50;45.30
6008;DHT22;3032;49.484;11.112;2023-03-17T08:59:59;19.80;45.50
6008;DHT22;3032;49.484;11.112;2023-03-17T09:02:25;18.90;45.00
6008;DHT22;3032;49.484;11.112;2023-03-17T09:04:51;18.50;46.00
6008;DHT22;3032;49.484;11.112;2023-03-17T09:07:17;19.70;46.80
6008;DHT22;3032;49.484;11.112;2023-03-17T09:09:42;20.60;45.00
6008;DHT22;3032;49.484;11.112;2023-03-17T09:12:08;20.90;45.00
6008;DHT22;3032;49.484;11.112;2023-03-17T09:14:34;21.80;45.10
6008;DHT22;3032;49.484;11.112;2023-03-17T09:17:00;22.70;44.00
6008;DHT22;3032;49.484;11.112;2023-03-17T09:19:25;21.90;43.00
6008;DHT22;3032;49.484;11.112;2023-03-17T09:21:51;20.70;43.80
6008;DHT22;3032;49.484;11.112;2023-03-17T09:24:18;19.60;44.20
6008;DHT22;3032;49.484;11.112;2023-03-17T09:26:44;19.10;46.20
6008;DHT22;3032;49.484;11.112;2023-03-17T09:29:09;19.20;46.20
6008;DHT22;3032;49.484;11.112;2023-03-17T09:31:35;19.80;45.30
6008;DHT22;3032;49.484;11.112;2023-03-17T09:34:02;19.90;45.50
6008;DHT22;3032;49.484;11.112;2023-03-17T09:36:29;19.90;45.30
6008;DHT22;3032;49.484;11.112;2023-03-17T09:38:56;20.10;45.00
6008;DHT22;3032;49.484;11.112;2023-03-17T09:41:30;20.60;44.30
6008;DHT22;3032;49.484;11.112;2023-03-17T09:49:46;21.10;44.20
6008;DHT22;3032;49.484;11.112;2023-03-17T09:52:15;20.60;43.80
6008;DHT22;3032;49.484;11.112;2023-03-17T09:54:44;20.00;42.90
6008;DHT22;3032;49.484;11.112;2023-03-17T09:57:37;20.60;44.00
6008;DHT22;3032;49.484;11.112;2023-03-17T10:00:14;20.40;43.10
6008;DHT22;3032;49.484;11.112;2023-03-17T10:02:41;20.30;43.40
6008;DHT22;3032;49.484;11.112;2023-03-17T10:10:50;20.80;44.20
6008;DHT22;3032;49.484;11.112;2023-03-17T10:16:11;22.10;42.60
6008;DHT22;3032;49.484;11.112;2023-03-17T10:19:03;21.10;43.00
6008;DHT22;3032;49.484;11.112;2023-03-17T10:21:33;22.00;43.80
6008;DHT22;3032;49.484;11.112;2023-03-17T10:24:02;23.50;44.50
6008;DHT22;3032;49.484;11.112;2023-03-17T10:26:48;24.60;41.50
6008;DHT22;3032;49.484;11.112;2023-03-17T10:29:21;23.70;41.90
6008;DHT22;3032;49.484;11.112;2023-03-17T10:31:49;22.00;41.80
6008;DHT22;3032;49.484;11.112;2023-03-17T10:34:18;21.10;43.30
6008;DHT22;3032;49.484;11.112;2023-03-17T10:37:21;21.30;43.10
6008;DHT22;3032;49.484;11.112;2023-03-17T10:39:45;21.60;42.90
6008;DHT22;3032;49.484;11.112;2023-03-17T10:42:24;23.10;43.30
6008;DHT22;3032;49.484;11.112;2023-03-17T10:45:14;23.80;43.10
6008;DHT22;3032;49.484;11.112;2023-03-17T10:47:46;24.60;41.40
6008;DHT22;3032;49.484;11.112;2023-03-17T10:50:34;25.00;41.60
6008;DHT22;3032;49.484;11.112;2023-03-17T10:53:07;25.80;40.80
6008;DHT22;3032;49.484;11.112;2023-03-17T10:55:42;26.70;38.70
6008;DHT22;3032;49.484;11.112;2023-03-17T11:00:36;26.00;38.50
6008;DHT22;3032;49.484;11.112;2023-03-17T11:03:22;26.10;38.20
6008;DHT22;3032;49.484;11.112;2023-03-17T11:06:16;25.10;38.80
6008;DHT22;3032;49.484;11.112;2023-03-17T11:08:54;24.40;40.00
6008;DHT22;3032;49.484;11.112;2023-03-17T11:11:31;24.10;39.60
6008;DHT22;3032;49.484;11.112;2023-03-17T11:14:25;23.40;39.80
6008;DHT22;3032;49.484;11.112;2023-03-17T11:16:59;22.60;39.40
6008;DHT22;3032;49.484;11.112;2023-03-17T11:20:07;22.50;40.50
6008;DHT22;3032;49.484;11.112;2023-03-17T11:22:47;23.10;39.10
6008;DHT22;3032;49.484;11.112;2023-03-17T11:25:18;24.10;40.60
6008;DHT22;3032;49.484;11.112;2023-03-17T11:33:12;22.60;38.90
6008;DHT22;3032;49.484;11.112;2023-03-17T11:38:29;20.50;42.10
6008;DHT22;3032;49.484;11.112;2023-03-17T11:46:18;19.80;42.30
6008;DHT22;3032;49.484;11.112;2023-03-17T11:49:03;19.70;41.70
6008;DHT22;3032;49.484;11.112;2023-03-17T11:54:34;19.80;41.40
6008;DHT22;3032;49.484;11.112;2023-03-17T11:57:12;20.00;42.70
6008;DHT22;3032;49.484;11.112;2023-03-17T11:59:40;21.20;42.50
6008;DHT22;3032;49.484;11.112;2023-03-17T12:02:44;21.30;41.60
6008;DHT22;3032;49.484;11.112;2023-03-17T12:05:14;20.80;41.80
6008;DHT22;3032;49.484;11.112;2023-03-17T12:08:03;20.50;41.30
6008;DHT22;3032;49.484;11.112;2023-03-17T12:16:09;19.80;43.30
6008;DHT22;3032;49.484;11.112;2023-03-17T12:21:37;20.40;42.80
6008;DHT22;3032;49.484;11.112;2023-03-17T12:24:24;21.00;44.00
6008;DHT22;3032;49.484;11.112;2023-03-17T12:26:54;21.90;43.70
6008;DHT22;3032;49.484;11.112;2023-03-17T12:29:51;21.80;42.70
6008;DHT22;3032;49.484;11.112;2023-03-17T12:32:51;21.70;43.30
6008;DHT22;3032;49.484;11.112;2023-03-17T12:35:28;21.90;43.10
6008;DHT22;3032;49.484;11.112;2023-03-17T12:37:57;21.70;42.80
6008;DHT22;3032;49.484;11.112;2023-03-17T12:40:34;21.00;43.00
6008;DHT22;3032;49.484;11.112;2023-03-17T12:45:47;20.20;43.10
6008;DHT22;3032;49.484;11.112;2023-03-17T12:48:43;20.00;43.20
6008;DHT22;3032;49.484;11.112;2023-03-17T12:51:33;19.90;43.70
6008;DHT22;3032;49.484;11.112;2023-03-17T12:54:17;19.80;44.50
6008;DHT22;3032;49.484;11.112;2023-03-17T12:56:44;20.30;44.30
6008;DHT22;3032;49.484;11.112;2023-03-17T12:59:19;21.20;44.10
6008;DHT22;3032;49.484;11.112;2023-03-17T13:01:57;20.30;43.10
6008;DHT22;3032;49.484;11.112;2023-03-17T13:04:31;19.90;43.50
6008;DHT22;3032;49.484;11.112;2023-03-17T13:07:21;19.90;45.00
6008;DHT22;3032;49.484;11.112;2023-03-17T13:20:51;20.40;44.50
6008;DHT22;3032;49.484;11.112;2023-03-17T13:23:19;20.40;43.60
6008;DHT22;3032;49.484;11.112;2023-03-17T13:25:50;20.20;43.40
6008;DHT22;3032;49.484;11.112;2023-03-17T13:28:41;20.30;44.50
6008;DHT22;3032;49.484;11.112;2023-03-17T13:33:54;20.30;43.60
6008;DHT22;3032;49.484;11.112;2023-03-17T13:41:55;21.00;44.40
6008;DHT22;3032;49.484;11.112;2023-03-17T13:49:48;20.60;44.50
6008;DHT22;3032;49.484;11.112;2023-03-17T13:52:30;20.70;43.40
6008;DHT22;3032;49.484;11.112;2023-03-17T13:55:02;20.20;43.90
6008;DHT22;3032;49.484;11.112;2023-03-17T13:57:37;20.50;44.90
6008;DHT22;3032;49.484;11.112;2023-03-17T14:00:30;20.80;44.40
6008;DHT22;3032;49.484;11.112;2023-03-17T14:05:55;20.90;44.10
6008;DHT22;3032;49.484;11.112;2023-03-17T14:08:36;20.80;42.70
6008;DHT22;3032;49.484;11.112;2023-03-17T14:11:06;20.60;44.00
6008;DHT22;3032;49.484;11.112;2023-03-17T14:13:48;20.10;44.20
6008;DHT22;3032;49.484;11.112;2023-03-17T14:16:29;19.80;44.40
6008;DHT22;3032;49.484;11.112;2023-03-17T14:19:26;19.50;45.10
6008;DHT22;3032;49.484;11.112;2023-03-17T14:21:53;19.40;44.70
6008;DHT22;3032;49.484;11.112;2023-03-17T14:24:28;19.80;45.40
6008;DHT22;3032;49.484;11.112;2023-03-17T14:26:54;19.70;45.30
6008;DHT22;3032;49.484;11.112;2023-03-17T14:29:28;20.50;47.10
6008;DHT22;3032;49.484;11.112;2023-03-17T14:32:09;20.20;45.50
6008;DHT22;3032;49.484;11.112;2023-03-17T14:34:42;20.10;45.00
6008;DHT22;3032;49.484;11.112;2023-03-17T14:37:11;20.00;47.00
6008;DHT22;3032;49.484;11.112;2023-03-17T14:39:43;19.90;46.60
6008;DHT22;3032;49.484;11.112;2023-03-17T14:42:09;19.60;47.20
6008;DHT22;3032;49.484;11.112;2023-03-17T14:44:42;19.70;47.10
6008;DHT22;3032;49.484;11.112;2023-03-17T14:47:19;19.60;48.20
6008;DHT22;3032;49.484;11.112;2023-03-17T14:49:45;19.50;47.60
6008;DHT22;3032;49.484;11.112;2023-03-17T14:52:22;19.30;47.70
6008;DHT22;3032;49.484;11.112;2023-03-17T14:54:50;19.50;47.40
6008;DHT22;3032;49.484;11.112;2023-03-17T14:57:17;19.40;48.10
6008;DHT22;3032;49.484;11.112;2023-03-17T15:00:22;19.50;47.40
6008;DHT22;3032;49.484;11.112;2023-03-17T15:02:55;19.10;48.20
6008;DHT22;3032;49.484;11.112;2023-03-17T15:07:53;19.50;47.40
6008;DHT22;3032;49.484;11.112;2023-03-17T15:10:24;19.30;47.70
6008;DHT22;3032;49.484;11.112;2023-03-17T15:12:59;19.10;48.30
6008;DHT22;3032;49.484;11.112;2023-03-17T15:15:28;19.20;48.90
6008;DHT22;3032;49.484;11.112;2023-03-17T15:17:57;19.40;48.90
6008;DHT22;3032;49.484;11.112;2023-03-17T15:20:23;19.20;48.60
6008;DHT22;3032;49.484;11.112;2023-03-17T15:22:58;18.90;48.60
6008;DHT22;3032;49.484;11.112;2023-03-17T15:25:31;19.00;49.30
6008;DHT22;3032;49.484;11.112;2023-03-17T15:27:58;19.40;49.00
6008;DHT22;3032;49.484;11.112;2023-03-17T15:30:24;19.30;49.50
6008;DHT22;3032;49.484;11.112;2023-03-17T15:32:52;19.40;48.80
6008;DHT22;3032;49.484;11.112;2023-03-17T15:35:21;19.20;48.80
6008;DHT22;3032;49.484;11.112;2023-03-17T15:37:47;19.40;49.70
6008;DHT22;3032;49.484;11.112;2023-03-17T15:40:13;19.40;49.70
6008;DHT22;3032;49.484;11.112;2023-03-17T15:42:40;19.10;50.60
6008;DHT22;3032;49.484;11.112;2023-03-17T15:45:07;19.10;51.20
6008;DHT22;3032;49.484;11.112;2023-03-17T15:47:34;19.10;51.00
6008;DHT22;3032;49.484;11.112;2023-03-17T15:52:50;18.70;51.20
6008;DHT22;3032;49.484;11.112;2023-03-17T15:55:25;18.60;52.10
6008;DHT22;3032;49.484;11.112;2023-03-17T15:57:56;18.60;52.00
6008;DHT22;3032;49.484;11.112;2023-03-17T16:00:23;18.50;52.80
6008;DHT22;3032;49.484;11.112;2023-03-17T16:02:51;18.40;52.90
6008;DHT22;3032;49.484;11.112;2023-03-17T16:05:31;18.50;52.90
6008;DHT22;3032;49.484;11.112;2023-03-17T16:07:58;18.60;52.70
6008;DHT22;3032;49.484;11.112;2023-03-17T16:10:28;18.50;52.60
6008;DHT22;3032;49.484;11.112;2023-03-17T16:12:54;18.30;53.60
6008;DHT22;3032;49.484;11.112;2023-03-17T16:15:31;18.20;53.90
6008;DHT22;3032;49.484;11.112;2023-03-17T16:18:00;18.00;53.80
6008;DHT22;3032;49.484;11.112;2023-03-17T16:20:41;18.00;54.00
6008;DHT22;3032;49.484;11.112;2023-03-17T16:23:16;17.90;54.10
6008;DHT22;3032;49.484;11.112;2023-03-17T16:25:42;17.70;54.50
6008;DHT22;3032;49.484;11.112;2023-03-17T16:28:20;17.80;54.40
6008;DHT22;3032;49.484;11.112;2023-03-17T16:30:47;17.60;55.00
6008;DHT22;3032;49.484;11.112;2023-03-17T16:33:22;17.50;54.90
6008;DHT22;3032;49.484;11.112;2023-03-17T16:35:49;17.40;55.40
6008;DHT22;3032;49.484;11.112;2023-03-17T16:38:19;17.30;55.50
6008;DHT22;3032;49.484;11.112;2023-03-17T16:40:47;17.40;55.50
6008;DHT22;3032;49.484;11.112;2023-03-17T16:43:33;17.50;55.80
6008;DHT22;3032;49.484;11.112;2023-03-17T16:46:01;17.20;55.70
6008;DHT22;3032;49.484;11.112;2023-03-17T16:48:28;16.80;55.70
6008;DHT22;3032;49.484;11.112;2023-03-17T16:50:54;16.90;56.00
6008;DHT22;3032;49.484;11.112;2023-03-17T16:53:20;16.90;55.60
6008;DHT22;3032;49.484;11.112;2023-03-17T16:55:47;16.50;56.00
6008;DHT22;3032;49.484;11.112;2023-03-17T16:58:21;16.50;56.60
6008;DHT22;3032;49.484;11.112;2023-03-17T17:00:49;16.40;56.10
6008;DHT22;3032;49.484;11.112;2023-03-17T17:03:16;16.40;55.60
6008;DHT22;3032;49.484;11.112;2023-03-17T17:05:42;16.30;56.40
6008;DHT22;3032;49.484;11.112;2023-03-17T17:08:08;16.30;56.10
6008;DHT22;3032;49.484;11.112;2023-03-17T17:10:34;16.30;56.30
6008;DHT22;3032;49.484;11.112;2023-03-17T17:13:02;16.30;56.10
6008;DHT22;3032;49.484;11.112;2023-03-17T17:15:28;16.60;56.50
6008;DHT22;3032;49.484;11.112;2023-03-17T17:18:01;16.60;56.10
6008;DHT22;3032;49.484;11.112;2023-03-17T17:20:30;16.70;55.80
6008;DHT22;3032;49.484;11.112;2023-03-17T17:22:57;16.60;55.80
6008;DHT22;3032;49.484;11.112;2023-03-17T17:25:23;16.50;56.20
6008;DHT22;3032;49.484;11.112;2023-03-17T17:27:49;16.20;56.40
6008;DHT22;3032;49.484;11.112;2023-03-17T17:30:18;16.20;56.40
6008;DHT22;3032;49.484;11.112;2023-03-17T17:32:44;16.20;56.50